sensor_id;sensor_type;location;lat;lon;timestamp;pressure;altitude;pressure_sealevel;temperature;humidity
15195;BME280;7698;42.478;23.756;2022-12-16T00:00:27;93280.34;;;5.43;100.00
15195;BME280;7698;42.478;23.756;2022-12-16T00:02:57;93287.25;;;5.44;100.00
15195;BME280;7698;42.478;23.756;2022-12-16T00:05:24;93291.31;;;5.47;100.00
15195;BME280;7698;42.478;23.756;2022-12-16T00:07:51;93302.13;;;5.45;100.00
15195;BME280;7698;42.478;23.756;2022-12-16T00:10:19;93291.53;;;5.38;100.00
15195;BME280;7698;42.478;23.756;2022-12-16T00:12:46;93284.63;;;5.31;100.00
15195;BME280;7698;42.478;23.756;2022-12-16T00:15:13;93282.63;;;5.20;100.00
15195;BME280;7698;42.478;23.756;2022-12-16T00:17:40;93274.31;;;5.09;100.00
15195;BME280;7698;42.478;23.756;2022-12-16T00:20:10;93268.41;;;5.01;100.00
15195;BME280;7698;42.478;23.756;2022-12-16T00:22:37;93261.94;;;4.84;100.00
15195;BME280;7698;42.478;23.756;2022-12-16T00:25:04;93263.38;;;4.73;100.00
15195;BME280;7698;42.478;23.756;2022-12-16T00:27:31;93258.06;;;4.73;100.00
15195;BME280;7698;42.478;23.756;2022-12-16T00:29:58;93264.78;;;4.69;100.00
15195;BME280;7698;42.478;23.756;2022-12-16T00:32:25;93257.91;;;4.61;100.00
15195;BME280;7698;42.478;23.756;2022-12-16T00:34:52;93269.69;;;4.59;100.00
15195;BME280;7698;42.478;23.756;2022-12-16T00:37:20;93260.34;;;4.56;100.00
15195;BME280;7698;42.478;23.756;2022-12-16T00:39:47;93270.50;;;4.53;100.00
15195;BME280;7698;42.478;23.756;2022-12-16T00:42:14;93273.16;;;4.53;100.00
15195;BME280;7698;42.478;23.756;2022-12-16T00:44:41;93272.13;;;4.54;100.00
15195;BME280;7698;42.478;23.756;2022-12-16T00:47:08;93276.00;;;4.58;100.00
15195;BME280;7698;42.478;23.756;2022-12-16T00:49:35;93274.78;;;4.60;100.00
15195;BME280;7698;42.478;23.756;2022-12-16T00:52:01;93279.03;;;4.68;100.00
15195;BME280;7698;42.478;23.756;2022-12-16T00:54:30;93273.53;;;4.69;100.00
15195;BME280;7698;42.478;23.756;2022-12-16T00:56:56;93270.06;;;4.69;100.00
15195;BME280;7698;42.478;23.756;2022-12-16T00:59:23;93267.44;;;4.69;100.00
15195;BME280;7698;42.478;23.756;2022-12-16T01:01:50;93263.97;;;4.68;100.00
15195;BME280;7698;42.478;23.756;2022-12-16T01:04:17;93270.69;;;4.71;100.00
15195;BME280;7698;42.478;23.756;2022-12-16T01:06:45;93264.59;;;4.70;100.00
15195;BME280;7698;42.478;23.756;2022-12-16T01:09:12;93263.16;;;4.68;100.00
15195;BME280;7698;42.478;23.756;2022-12-16T01:11:40;93255.03;;;4.69;100.00
15195;BME280;7698;42.478;23.756;2022-12-16T01:14:07;93258.47;;;4.70;100.00
15195;BME280;7698;42.478;23.756;2022-12-16T01:16:34;93258.47;;;4.70;100.00
15195;BME280;7698;42.478;23.756;2022-12-16T01:19:01;93260.09;;;4.71;100.00
15195;BME280;7698;42.478;23.756;2022-12-16T01:21:28;93257.47;;;4.78;100.00
15195;BME280;7698;42.478;23.756;2022-12-16T01:23:55;93252.56;;;4.81;100.00
15195;BME280;7698;42.478;23.756;2022-12-16T01:26:22;93266.41;;;4.83;100.00
15195;BME280;7698;42.478;23.756;2022-12-16T01:28:53;93269.88;;;4.90;100.00
15195;BME280;7698;42.478;23.756;2022-12-16T01:31:20;93260.69;;;4.93;100.00
15195;BME280;7698;42.478;23.756;2022-12-16T01:33:47;93259.28;;;4.90;100.00
15195;BME280;7698;42.478;23.756;2022-12-16T01:36:15;93256.44;;;4.92;100.00
15195;BME280;7698;42.478;23.756;2022-12-16T01:38:43;93251.72;;;4.94;100.00
15195;BME280;7698;42.478;23.756;2022-12-16T01:41:10;93242.78;;;4.95;100.00
15195;BME280;7698;42.478;23.756;2022-12-16T01:43:39;93228.16;;;4.92;100.00
15195;BME280;7698;42.478;23.756;2022-12-16T01:46:11;93224.91;;;4.90;100.00
15195;BME280;7698;42.478;23.756;2022-12-16T01:48:45;93218.41;;;4.86;100.00
15195;BME280;7698;42.478;23.756;2022-12-16T01:51:15;93222.88;;;4.86;100.00
15195;BME280;7698;42.478;23.756;2022-12-16T01:53:45;93223.06;;;4.84;100.00
15195;BME280;7698;42.478;23.756;2022-12-16T01:56:15;93221.84;;;4.80;100.00
15195;BME280;7698;42.478;23.756;2022-12-16T01:58:44;93222.88;;;4.79;100.00
15195;BME280;7698;42.478;23.756;2022-12-16T02:01:13;93224.91;;;4.77;100.00
15195;BME280;7698;42.478;23.756;2022-12-16T02:03:42;93227.97;;;4.74;100.00
15195;BME280;7698;42.478;23.756;2022-12-16T02:06:08;93226.13;;;4.74;100.00
15195;BME280;7698;42.478;23.756;2022-12-16T02:08:35;93227.97;;;4.81;100.00
15195;BME280;7698;42.478;23.756;2022-12-16T02:16:59;93224.09;;;4.90;100.00
15195;BME280;7698;42.478;23.756;2022-12-16T02:20:06;93239.09;;;4.96;100.00
15195;BME280;7698;42.478;23.756;2022-12-16T02:22:48;93226.88;;;5.01;100.00
15195;BME280;7698;42.478;23.756;2022-12-16T02:25:54;93225.25;;;5.00;100.00
15195;BME280;7698;42.478;23.756;2022-12-16T02:28:39;93231.38;;;5.01;100.00
15195;BME280;7698;42.478;23.756;2022-12-16T02:31:22;93225.25;;;5.07;100.00
15195;BME280;7698;42.478;23.756;2022-12-16T02:34:06;93223.63;;;5.06;100.00
15195;BME280;7698;42.478;23.756;2022-12-16T02:36:43;93230.53;;;5.07;100.00
15195;BME280;7698;42.478;23.756;2022-12-16T02:39:18;93229.31;;;5.09;100.00
15195;BME280;7698;42.478;23.756;2022-12-16T02:41:49;93215.28;;;5.09;100.00
15195;BME280;7698;42.478;23.756;2022-12-16T02:44:19;93214.88;;;5.05;100.00
15195;BME280;7698;42.478;23.756;2022-12-16T02:46:54;93214.47;;;5.08;100.00
15195;BME280;7698;42.478;23.756;2022-12-16T02:49:47;93206.53;;;5.08;100.00
15195;BME280;7698;42.478;23.756;2022-12-16T02:52:17;93203.06;;;5.01;100.00
15195;BME280;7698;42.478;23.756;2022-12-16T02:54:45;93215.28;;;4.96;100.00
15195;BME280;7698;42.478;23.756;2022-12-16T02:57:31;93206.34;;;4.97;100.00
15195;BME280;7698;42.478;23.756;2022-12-16T03:00:06;93202.88;;;4.96;100.00
15195;BME280;7698;42.478;23.756;2022-12-16T03:02:41;93204.91;;;4.94;100.00
15195;BME280;7698;42.478;23.756;2022-12-16T03:05:16;93216.53;;;4.93;100.00
15195;BME280;7698;42.478;23.756;2022-12-16T03:07:46;93228.72;;;4.94;100.00
15195;BME280;7698;42.478;23.756;2022-12-16T03:10:16;93233.00;;;5.02;100.00
15195;BME280;7698;42.478;23.756;2022-12-16T03:12:45;93222.63;;;5.00;100.00
15195;BME280;7698;42.478;23.756;2022-12-16T03:15:14;93232.19;;;5.01;100.00
15195;BME280;7698;42.478;23.756;2022-12-16T03:17:45;93236.25;;;5.04;100.00
15195;BME280;7698;42.478;23.756;2022-12-16T03:20:17;93242.16;;;5.06;100.00
15195;BME280;7698;42.478;23.756;2022-12-16T03:22:47;93241.75;;;5.02;100.00
15195;BME280;7698;42.478;23.756;2022-12-16T03:25:16;93243.19;;;4.98;100.00
15195;BME280;7698;42.478;23.756;2022-12-16T03:27:47;93225.72;;;4.91;100.00
15195;BME280;7698;42.478;23.756;2022-12-16T03:30:21;93231.41;;;4.88;100.00
15195;BME280;7698;42.478;23.756;2022-12-16T03:32:57;93234.25;;;4.86;100.00
15195;BME280;7698;42.478;23.756;2022-12-16T03:35:30;93245.66;;;4.80;100.00
15195;BME280;7698;42.478;23.756;2022-12-16T03:38:00;93239.56;;;4.80;100.00
15195;BME280;7698;42.478;23.756;2022-12-16T03:40:31;93238.34;;;4.82;100.00
15195;BME280;7698;42.478;23.756;2022-12-16T03:43:00;93234.69;;;4.83;100.00
15195;BME280;7698;42.478;23.756;2022-12-16T03:45:30;93232.63;;;4.85;100.00
15195;BME280;7698;42.478;23.756;2022-12-16T03:48:04;93224.91;;;4.90;100.00
15195;BME280;7698;42.478;23.756;2022-12-16T03:50:33;93220.78;;;4.94;100.00
15195;BME280;7698;42.478;23.756;2022-12-16T03:53:00;93219.97;;;5.00;100.00
15195;BME280;7698;42.478;23.756;2022-12-16T03:55:27;93217.53;;;5.05;100.00
15195;BME280;7698;42.478;23.756;2022-12-16T03:57:57;93219.75;;;5.08;100.00
15195;BME280;7698;42.478;23.756;2022-12-16T04:00:25;93230.13;;;5.17;100.00
15195;BME280;7698;42.478;23.756;2022-12-16T04:02:52;93226.44;;;5.18;100.00
15195;BME280;7698;42.478;23.756;2022-12-16T04:05:20;93212.81;;;5.14;100.00
15195;BME280;7698;42.478;23.756;2022-12-16T04:07:47;93223.22;;;5.09;100.00
15195;BME280;7698;42.478;23.756;2022-12-16T04:10:14;93228.72;;;5.07;100.00
15195;BME280;7698;42.478;23.756;2022-12-16T04:12:40;93224.22;;;5.08;100.00
15195;BME280;7698;42.478;23.756;2022-12-16T04:15:25;93234.19;;;5.13;100.00
15195;BME280;7698;42.478;23.756;2022-12-16T04:18:13;93232.56;;;5.18;100.00
15195;BME280;7698;42.478;23.756;2022-12-16T04:21:00;93225.19;;;5.20;100.00
15195;BME280;7698;42.478;23.756;2022-12-16T04:23:47;93236.59;;;5.21;100.00
15195;BME280;7698;42.478;23.756;2022-12-16T04:26:32;93244.31;;;5.29;100.00
15195;BME280;7698;42.478;23.756;2022-12-16T04:29:20;93240.44;;;5.38;100.00
15195;BME280;7698;42.478;23.756;2022-12-16T04:31:47;93252.38;;;5.47;100.00
15195;BME280;7698;42.478;23.756;2022-12-16T04:34:14;93242.78;;;5.59;100.00
15195;BME280;7698;42.478;23.756;2022-12-16T04:36:56;93255.19;;;5.65;100.00
15195;BME280;7698;42.478;23.756;2022-12-16T04:39:41;93257.00;;;5.71;100.00
15195;BME280;7698;42.478;23.756;2022-12-16T04:42:26;93251.03;;;5.76;100.00
15195;BME280;7698;42.478;23.756;2022-12-16T04:45:10;93243.28;;;5.81;100.00
15195;BME280;7698;42.478;23.756;2022-12-16T04:47:54;93251.19;;;5.88;100.00
15195;BME280;7698;42.478;23.756;2022-12-16T04:50:39;93256.69;;;5.93;100.00
15195;BME280;7698;42.478;23.756;2022-12-16T04:53:25;93248.34;;;5.96;100.00
15195;BME280;7698;42.478;23.756;2022-12-16T04:56:09;93241.00;;;5.91;100.00
15195;BME280;7698;42.478;23.756;2022-12-16T04:58:54;93240.59;;;5.88;100.00
15195;BME280;7698;42.478;23.756;2022-12-16T05:01:38;93244.06;;;5.88;100.00
15195;BME280;7698;42.478;23.756;2022-12-16T05:04:23;93255.50;;;5.89;100.00
15195;BME280;7698;42.478;23.756;2022-12-16T05:07:07;93256.69;;;5.93;100.00
15195;BME280;7698;42.478;23.756;2022-12-16T05:09:53;93230.59;;;5.96;100.00
15195;BME280;7698;42.478;23.756;2022-12-16T05:12:37;93236.28;;;6.00;100.00
15195;BME280;7698;42.478;23.756;2022-12-16T05:15:21;93238.88;;;6.06;100.00
15195;BME280;7698;42.478;23.756;2022-12-16T05:18:08;93223.72;;;6.20;100.00
15195;BME280;7698;42.478;23.756;2022-12-16T05:20:53;93230.41;;;6.23;100.00
15195;BME280;7698;42.478;23.756;2022-12-16T05:23:37;93240.81;;;6.24;100.00
15195;BME280;7698;42.478;23.756;2022-12-16T05:26:22;93247.31;;;6.28;100.00
15195;BME280;7698;42.478;23.756;2022-12-16T05:29:06;93244.22;;;6.31;100.00
15195;BME280;7698;42.478;23.756;2022-12-16T05:31:50;93266.44;;;6.30;100.00
15195;BME280;7698;42.478;23.756;2022-12-16T05:34:34;93263.38;;;6.33;100.00
15195;BME280;7698;42.478;23.756;2022-12-16T05:37:18;93270.28;;;6.34;100.00
15195;BME280;7698;42.478;23.756;2022-12-16T05:40:03;93261.75;;;6.32;100.00
15195;BME280;7698;42.478;23.756;2022-12-16T05:42:49;93278.06;;;6.29;100.00
15195;BME280;7698;42.478;23.756;2022-12-16T05:45:33;93284.69;;;6.20;100.00
15195;BME280;7698;42.478;23.756;2022-12-16T05:48:23;93290.41;;;6.17;100.00
15195;BME280;7698;42.478;23.756;2022-12-16T05:51:07;93279.38;;;6.20;100.00
15195;BME280;7698;42.478;23.756;2022-12-16T05:53:51;93279.81;;;6.17;100.00
15195;BME280;7698;42.478;23.756;2022-12-16T05:56:35;93285.47;;;6.27;100.00
15195;BME280;7698;42.478;23.756;2022-12-16T05:59:21;93290.31;;;6.30;100.00
15195;BME280;7698;42.478;23.756;2022-12-16T06:02:05;93305.16;;;6.38;100.00
15195;BME280;7698;42.478;23.756;2022-12-16T06:04:49;93305.34;;;6.43;100.00
15195;BME280;7698;42.478;23.756;2022-12-16T06:07:33;93319.97;;;6.52;100.00
15195;BME280;7698;42.478;23.756;2022-12-16T06:10:14;93335.06;;;6.52;100.00
15195;BME280;7698;42.478;23.756;2022-12-16T06:12:58;93340.53;;;6.57;100.00
15195;BME280;7698;42.478;23.756;2022-12-16T06:15:44;93334.38;;;6.63;100.00
15195;BME280;7698;42.478;23.756;2022-12-16T06:18:28;93334.13;;;6.71;100.00
15195;BME280;7698;42.478;23.756;2022-12-16T06:21:12;93334.06;;;6.77;100.00
15195;BME280;7698;42.478;23.756;2022-12-16T06:23:56;93345.81;;;6.88;100.00
15195;BME280;7698;42.478;23.756;2022-12-16T06:26:40;93342.09;;;6.96;100.00
15195;BME280;7698;42.478;23.756;2022-12-16T06:29:24;93364.47;;;7.06;100.00
15195;BME280;7698;42.478;23.756;2022-12-16T06:32:12;93340.97;;;7.10;100.00
15195;BME280;7698;42.478;23.756;2022-12-16T06:34:56;93344.78;;;7.14;100.00
15195;BME280;7698;42.478;23.756;2022-12-16T06:37:40;93344.56;;;7.16;100.00
15195;BME280;7698;42.478;23.756;2022-12-16T06:40:25;93341.47;;;7.19;100.00
15195;BME280;7698;42.478;23.756;2022-12-16T06:43:09;93373.72;;;7.22;100.00
15195;BME280;7698;42.478;23.756;2022-12-16T06:45:53;93363.75;;;7.18;100.00
15195;BME280;7698;42.478;23.756;2022-12-16T06:48:38;93379.16;;;7.09;100.00
15195;BME280;7698;42.478;23.756;2022-12-16T06:51:22;93361.84;;;7.25;100.00
15195;BME280;7698;42.478;23.756;2022-12-16T06:54:06;93369.41;;;7.28;100.00
15195;BME280;7698;42.478;23.756;2022-12-16T06:56:51;93374.88;;;7.33;100.00
15195;BME280;7698;42.478;23.756;2022-12-16T06:59:35;93376.13;;;7.30;100.00
15195;BME280;7698;42.478;23.756;2022-12-16T07:02:19;93381.00;;;7.33;100.00
15195;BME280;7698;42.478;23.756;2022-12-16T07:05:04;93376.28;;;7.35;100.00
15195;BME280;7698;42.478;23.756;2022-12-16T07:07:49;93368.75;;;7.32;100.00
15195;BME280;7698;42.478;23.756;2022-12-16T07:10:34;93373.69;;;7.29;100.00
15195;BME280;7698;42.478;23.756;2022-12-16T07:13:19;93350.44;;;7.24;100.00
15195;BME280;7698;42.478;23.756;2022-12-16T07:16:03;93375.56;;;7.22;100.00
15195;BME280;7698;42.478;23.756;2022-12-16T07:18:47;93359.84;;;7.20;100.00
15195;BME280;7698;42.478;23.756;2022-12-16T07:21:33;93356.72;;;7.30;100.00
15195;BME280;7698;42.478;23.756;2022-12-16T07:24:17;93338.28;;;7.35;100.00
15195;BME280;7698;42.478;23.756;2022-12-16T07:27:01;93330.00;;;7.43;100.00
15195;BME280;7698;42.478;23.756;2022-12-16T07:29:42;93344.91;;;7.44;100.00
15195;BME280;7698;42.478;23.756;2022-12-16T07:32:26;93354.28;;;7.46;100.00
15195;BME280;7698;42.478;23.756;2022-12-16T07:35:10;93348.94;;;7.53;100.00
15195;BME280;7698;42.478;23.756;2022-12-16T07:37:52;93365.19;;;7.63;100.00
15195;BME280;7698;42.478;23.756;2022-12-16T07:40:36;93364.88;;;7.71;100.00
15195;BME280;7698;42.478;23.756;2022-12-16T07:43:20;93375.97;;;7.87;100.00
15195;BME280;7698;42.478;23.756;2022-12-16T07:46:04;93371.38;;;7.94;100.00
15195;BME280;7698;42.478;23.756;2022-12-16T07:48:48;93385.25;;;7.96;100.00
15195;BME280;7698;42.478;23.756;2022-12-16T07:51:33;93367.31;;;8.09;100.00
15195;BME280;7698;42.478;23.756;2022-12-16T07:54:18;93378.78;;;8.10;100.00
15195;BME280;7698;42.478;23.756;2022-12-16T07:57:02;93378.94;;;8.15;100.00
15195;BME280;7698;42.478;23.756;2022-12-16T07:59:47;93389.63;;;8.27;100.00
15195;BME280;7698;42.478;23.756;2022-12-16T08:02:31;93381.41;;;8.28;100.00
15195;BME280;7698;42.478;23.756;2022-12-16T08:05:15;93378.25;;;8.38;100.00
15195;BME280;7698;42.478;23.756;2022-12-16T08:08:00;93374.56;;;8.39;100.00
15195;BME280;7698;42.478;23.756;2022-12-16T08:10:45;93379.81;;;8.45;100.00
15195;BME280;7698;42.478;23.756;2022-12-16T08:13:29;93371.75;;;8.34;100.00
15195;BME280;7698;42.478;23.756;2022-12-16T08:16:13;93365.19;;;8.36;100.00
15195;BME280;7698;42.478;23.756;2022-12-16T08:18:57;93391.59;;;8.49;100.00
15195;BME280;7698;42.478;23.756;2022-12-16T08:21:41;93357.75;;;8.57;100.00
15195;BME280;7698;42.478;23.756;2022-12-16T08:24:25;93374.06;;;8.60;100.00
15195;BME280;7698;42.478;23.756;2022-12-16T08:27:11;93384.03;;;8.65;100.00
15195;BME280;7698;42.478;23.756;2022-12-16T08:29:55;93378.34;;;8.61;100.00
15195;BME280;7698;42.478;23.756;2022-12-16T08:32:39;93378.00;;;8.58;100.00
15195;BME280;7698;42.478;23.756;2022-12-16T08:35:23;93362.91;;;8.52;100.00
15195;BME280;7698;42.478;23.756;2022-12-16T08:38:07;93360.16;;;8.46;100.00
15195;BME280;7698;42.478;23.756;2022-12-16T08:40:53;93378.38;;;8.25;100.00
15195;BME280;7698;42.478;23.756;2022-12-16T08:43:39;93365.31;;;8.23;100.00
15195;BME280;7698;42.478;23.756;2022-12-16T08:46:23;93371.22;;;8.25;100.00
15195;BME280;7698;42.478;23.756;2022-12-16T08:49:07;93359.09;;;8.29;100.00
15195;BME280;7698;42.478;23.756;2022-12-16T08:51:51;93374.66;;;8.32;100.00
15195;BME280;7698;42.478;23.756;2022-12-16T08:54:36;93343.00;;;8.42;100.00
15195;BME280;7698;42.478;23.756;2022-12-16T08:57:20;93374.59;;;8.51;100.00
15195;BME280;7698;42.478;23.756;2022-12-16T09:00:08;93337.50;;;8.56;100.00
15195;BME280;7698;42.478;23.756;2022-12-16T09:02:54;93342.38;;;8.59;100.00
15195;BME280;7698;42.478;23.756;2022-12-16T09:05:38;93345.53;;;8.67;100.00
15195;BME280;7698;42.478;23.756;2022-12-16T09:08:22;93325.84;;;8.68;100.00
15195;BME280;7698;42.478;23.756;2022-12-16T09:11:07;93335.47;;;8.81;100.00
15195;BME280;7698;42.478;23.756;2022-12-16T09:13:51;93324.16;;;8.86;100.00
15195;BME280;7698;42.478;23.756;2022-12-16T09:16:37;93323.34;;;8.85;100.00
15195;BME280;7698;42.478;23.756;2022-12-16T09:19:21;93317.06;;;8.79;100.00
15195;BME280;7698;42.478;23.756;2022-12-16T09:22:05;93323.13;;;8.87;100.00
15195;BME280;7698;42.478;23.756;2022-12-16T09:24:49;93317.81;;;8.98;100.00
15195;BME280;7698;42.478;23.756;2022-12-16T09:27:33;93333.66;;;8.93;100.00
15195;BME280;7698;42.478;23.756;2022-12-16T09:30:17;93322.78;;;8.95;100.00
15195;BME280;7698;42.478;23.756;2022-12-16T09:33:03;93306.91;;;8.88;100.00
15195;BME280;7698;42.478;23.756;2022-12-16T09:35:47;93316.19;;;8.97;100.00
15195;BME280;7698;42.478;23.756;2022-12-16T09:38:28;93307.75;;;9.00;100.00
15195;BME280;7698;42.478;23.756;2022-12-16T09:41:25;93303.56;;;9.04;100.00
15195;BME280;7698;42.478;23.756;2022-12-16T09:44:18;93296.28;;;9.11;100.00
15195;BME280;7698;42.478;23.756;2022-12-16T09:47:12;93287.03;;;9.14;100.00
15195;BME280;7698;42.478;23.756;2022-12-16T09:50:03;93285.16;;;9.14;100.00
15195;BME280;7698;42.478;23.756;2022-12-16T09:52:53;93297.31;;;9.10;100.00
15195;BME280;7698;42.478;23.756;2022-12-16T09:55:42;93292.00;;;9.10;100.00
15195;BME280;7698;42.478;23.756;2022-12-16T09:58:30;93293.16;;;9.14;100.00
15195;BME280;7698;42.478;23.756;2022-12-16T10:01:18;93290.72;;;9.13;100.00
15195;BME280;7698;42.478;23.756;2022-12-16T10:04:04;93308.47;;;9.19;100.00
15195;BME280;7698;42.478;23.756;2022-12-16T10:06:51;93309.03;;;9.21;100.00
15195;BME280;7698;42.478;23.756;2022-12-16T10:09:42;93307.78;;;9.24;100.00
15195;BME280;7698;42.478;23.756;2022-12-16T10:12:36;93294.91;;;9.21;100.00
15195;BME280;7698;42.478;23.756;2022-12-16T10:15:29;93298.84;;;9.30;100.00
15195;BME280;7698;42.478;23.756;2022-12-16T10:18:41;93304.84;;;9.37;100.00
15195;BME280;7698;42.478;23.756;2022-12-16T10:21:33;93291.53;;;9.37;100.00
15195;BME280;7698;42.478;23.756;2022-12-16T10:24:28;93293.97;;;9.38;100.00
15195;BME280;7698;42.478;23.756;2022-12-16T10:27:22;93290.72;;;9.36;100.00
15195;BME280;7698;42.478;23.756;2022-12-16T10:30:11;93293.16;;;9.38;100.00
15195;BME280;7698;42.478;23.756;2022-12-16T10:32:56;93301.84;;;9.33;100.00
15195;BME280;7698;42.478;23.756;2022-12-16T10:35:44;93288.75;;;9.32;100.00
15195;BME280;7698;42.478;23.756;2022-12-16T10:38:36;93284.94;;;9.39;100.00
15195;BME280;7698;42.478;23.756;2022-12-16T10:41:26;93281.13;;;9.47;100.00
15195;BME280;7698;42.478;23.756;2022-12-16T10:44:22;93284.72;;;9.53;100.00
15195;BME280;7698;42.478;23.756;2022-12-16T10:47:08;93280.66;;;9.50;100.00
15195;BME280;7698;42.478;23.756;2022-12-16T10:49:53;93275.53;;;9.60;100.00
15195;BME280;7698;42.478;23.756;2022-12-16T10:52:44;93276.31;;;9.72;100.00
15195;BME280;7698;42.478;23.756;2022-12-16T10:55:40;93262.78;;;9.62;100.00
15195;BME280;7698;42.478;23.756;2022-12-16T10:58:32;93271.56;;;9.74;100.00
15195;BME280;7698;42.478;23.756;2022-12-16T11:01:21;93288.25;;;9.81;100.00
15195;BME280;7698;42.478;23.756;2022-12-16T11:04:26;93289.25;;;9.92;100.00
15195;BME280;7698;42.478;23.756;2022-12-16T11:07:23;93273.38;;;9.85;100.00
15195;BME280;7698;42.478;23.756;2022-12-16T11:10:27;93262.81;;;9.91;100.00
15195;BME280;7698;42.478;23.756;2022-12-16T11:13:17;93269.19;;;9.90;100.00
15195;BME280;7698;42.478;23.756;2022-12-16T11:16:14;93271.41;;;9.93;100.00
15195;BME280;7698;42.478;23.756;2022-12-16T11:18:59;93268.38;;;10.01;100.00
15195;BME280;7698;42.478;23.756;2022-12-16T11:21:43;93279.63;;;10.03;100.00
15195;BME280;7698;42.478;23.756;2022-12-16T11:24:28;93273.72;;;10.01;100.00
15195;BME280;7698;42.478;23.756;2022-12-16T11:27:15;93288.44;;;10.03;100.00
15195;BME280;7698;42.478;23.756;2022-12-16T11:30:02;93274.38;;;10.08;100.00
15195;BME280;7698;42.478;23.756;2022-12-16T11:32:51;93276.31;;;10.12;100.00
15195;BME280;7698;42.478;23.756;2022-12-16T11:35:39;93281.53;;;10.31;100.00
15195;BME280;7698;42.478;23.756;2022-12-16T11:38:26;93280.56;;;10.37;100.00
15195;BME280;7698;42.478;23.756;2022-12-16T11:41:21;93275.75;;;10.50;100.00
15195;BME280;7698;42.478;23.756;2022-12-16T11:44:12;93274.34;;;10.48;100.00
15195;BME280;7698;42.478;23.756;2022-12-16T11:46:59;93274.47;;;10.53;100.00
15195;BME280;7698;42.478;23.756;2022-12-16T11:49:45;93263.16;;;10.63;100.00
15195;BME280;7698;42.478;23.756;2022-12-16T11:52:30;93263.63;;;10.60;100.00
15195;BME280;7698;42.478;23.756;2022-12-16T11:55:22;93250.91;;;10.67;100.00
15195;BME280;7698;42.478;23.756;2022-12-16T11:58:27;93257.81;;;10.63;100.00
15195;BME280;7698;42.478;23.756;2022-12-16T12:01:18;93249.38;;;10.71;100.00
15195;BME280;7698;42.478;23.756;2022-12-16T12:04:04;93241.13;;;10.72;100.00
15195;BME280;7698;42.478;23.756;2022-12-16T12:07:04;93273.09;;;10.67;100.00
15195;BME280;7698;42.478;23.756;2022-12-16T12:09:55;93262.16;;;10.69;100.00
15195;BME280;7698;42.478;23.756;2022-12-16T12:12:48;93249.56;;;10.81;100.00
15195;BME280;7698;42.478;23.756;2022-12-16T12:15:42;93260.34;;;10.86;100.00
15195;BME280;7698;42.478;23.756;2022-12-16T12:18:49;93256.19;;;10.95;100.00
15195;BME280;7698;42.478;23.756;2022-12-16T12:21:43;93264.41;;;10.89;100.00
15195;BME280;7698;42.478;23.756;2022-12-16T12:24:36;93270.13;;;10.97;100.00
15195;BME280;7698;42.478;23.756;2022-12-16T12:27:39;93261.06;;;10.98;100.00
15195;BME280;7698;42.478;23.756;2022-12-16T12:30:25;93254.56;;;10.94;100.00
15195;BME280;7698;42.478;23.756;2022-12-16T12:33:22;93256.19;;;10.95;100.00
15195;BME280;7698;42.478;23.756;2022-12-16T12:36:11;93248.34;;;11.05;100.00
15195;BME280;7698;42.478;23.756;2022-12-16T12:39:03;93239.78;;;11.03;100.00
15195;BME280;7698;42.478;23.756;2022-12-16T12:42:06;93245.84;;;10.82;100.00
15195;BME280;7698;42.478;23.756;2022-12-16T12:45:04;93251.03;;;10.89;100.00
15195;BME280;7698;42.478;23.756;2022-12-16T12:48:06;93254.19;;;11.02;100.00
15195;BME280;7698;42.478;23.756;2022-12-16T12:50:58;93252.00;;;10.99;100.00
15195;BME280;7698;42.478;23.756;2022-12-16T12:53:52;93250.31;;;10.93;100.00
15195;BME280;7698;42.478;23.756;2022-12-16T12:56:45;93261.88;;;11.15;100.00
15195;BME280;7698;42.478;23.756;2022-12-16T12:59:41;93263.63;;;11.27;100.00
15195;BME280;7698;42.478;23.756;2022-12-16T13:02:44;93251.06;;;11.44;100.00
15195;BME280;7698;42.478;23.756;2022-12-16T13:05:32;93248.50;;;11.32;100.00
15195;BME280;7698;42.478;23.756;2022-12-16T13:08:30;93247.19;;;11.35;100.00
15195;BME280;7698;42.478;23.756;2022-12-16T13:11:12;93255.81;;;11.59;100.00
15195;BME280;7698;42.478;23.756;2022-12-16T13:13:57;93249.38;;;11.76;100.00
15195;BME280;7698;42.478;23.756;2022-12-16T13:17:07;93249.97;;;12.76;100.00
15195;BME280;7698;42.478;23.756;2022-12-16T13:19:55;93256.84;;;13.26;100.00
15195;BME280;7698;42.478;23.756;2022-12-16T13:22:40;93244.03;;;13.80;100.00
15195;BME280;7698;42.478;23.756;2022-12-16T13:25:31;93250.97;;;14.28;100.00
15195;BME280;7698;42.478;23.756;2022-12-16T13:28:20;93254.56;;;14.54;100.00
15195;BME280;7698;42.478;23.756;2022-12-16T13:31:05;93259.75;;;14.76;99.64
15195;BME280;7698;42.478;23.756;2022-12-16T13:33:53;93264.00;;;14.67;93.47
15195;BME280;7698;42.478;23.756;2022-12-16T13:36:39;93258.09;;;14.80;92.65
15195;BME280;7698;42.478;23.756;2022-12-16T13:39:25;93262.94;;;14.78;90.03
15195;BME280;7698;42.478;23.756;2022-12-16T13:42:48;93273.75;;;15.03;91.17
15195;BME280;7698;42.478;23.756;2022-12-16T13:45:35;93277.47;;;14.87;86.21
15195;BME280;7698;42.478;23.756;2022-12-16T13:48:36;93271.53;;;14.80;85.28
15195;BME280;7698;42.478;23.756;2022-12-16T13:52:11;93270.47;;;14.81;84.79
15195;BME280;7698;42.478;23.756;2022-12-16T13:55:13;93271.50;;;14.54;85.68
15195;BME280;7698;42.478;23.756;2022-12-16T13:58:03;93271.44;;;14.39;86.30
15195;BME280;7698;42.478;23.756;2022-12-16T14:00:56;93259.53;;;14.20;87.10
15195;BME280;7698;42.478;23.756;2022-12-16T14:03:44;93278.59;;;13.71;87.66
15195;BME280;7698;42.478;23.756;2022-12-16T14:06:30;93278.75;;;12.91;90.96
15195;BME280;7698;42.478;23.756;2022-12-16T14:09:26;93278.22;;;12.62;97.58
15195;BME280;7698;42.478;23.756;2022-12-16T14:12:19;93277.06;;;12.79;99.42
15195;BME280;7698;42.478;23.756;2022-12-16T14:15:12;93271.06;;;12.99;98.43
15195;BME280;7698;42.478;23.756;2022-12-16T14:18:05;93282.19;;;12.86;96.82
15195;BME280;7698;42.478;23.756;2022-12-16T14:20:59;93278.88;;;12.74;98.40
15195;BME280;7698;42.478;23.756;2022-12-16T14:23:48;93284.69;;;12.66;98.94